Hamel, IL (62046)

1:50 AM CDT on April 21, 2015 (GMT -0500)
Dunlap Lake | | Change Station
CLOSE
Current Station
Personal Weather Station
Location: Edwardsville, IL
Elevation: 540 ft
Nearby Weather Stations

Elev 540 ft 38.80 °N, 89.93 °W | Updated 23 seconds ago

Clear
Clear
47.9 °F
Feels Like 48 °F
N
3.0
Wind Variable Wind from South
Gusts 6.0 mph

Today
High -- | Low -- °F
--% Chance of Precip.
Yesterday
High -- | Low -- °F
Precip. -- in
6:14 AM 7:42 PM
Waxing Crescent, 8% visible
Pressure 29.82 in
Visibility 10.0 miles
Clouds Clear
Windchill 48 °F
Dew Point 35 °F
Humidity 62%
Rainfall 0.00 in
Snow Depth Not available.
UV 0 out of 12
Pollen 4.30 out of 12
Air Quality Not available.
Flu Activity Regional
METAR KALN 210635Z AUTO 22009KT 10SM CLR 08/M02 A2982 RMK AO2 T00761025

More Conditions Fewer Conditions

Pressure 29.82 in
Visibility 10.0 miles
Clouds Clear
Windchill 48 °F
Dew Point 35 °F
Humidity 62%
Rainfall 0.00 in
Snow Depth Not available.
UV 0 out of 12
Pollen 4.30 out of 12
Air Quality Not available.
Flu Activity Regional
METAR KALN 210635Z AUTO 22009KT 10SM CLR 08/M02 A2982 RMK AO2 T00761025

More Conditions Fewer Conditions

10-Day Weather Forecast

Almanac

Astronomy

Apr. 21, 2015 Rise Set
Actual Time
Civil Twilight
Nautical Twilight
Astronomical Twilight
Moon
Length of Visible Light
Length of Day
Tomorrow will be .
, % of the Moon is Illuminated

Today's Extremes

State Highs State Lows

Community

WunderPhotos

Upload Photos

1,815,321 photos uploaded!

WunderBlogs® & News

Nearby

Air Quality

  Air Quality AQ Index Pollutant
Not available.

Snow Depth

Station Depth Elevation

Earthquake Activity

City Distance Mag. Time & Date
Minimum magnitude displayed is 2.5.

Coastal Water Temperatures

Place Temperature

Stations

Nearby Weather Stations

Station Location Temp. Windchill Dew Point Humidity Wind Precip. Elev Updated Type